sensor_id;sensor_type;location;lat;lon;timestamp;pressure;altitude;pressure_sealevel;temperature;humidity
6938;BME280;40040;42.706;23.372;2022-08-01T00:01:36;148658.22;;;18.20;100.00
6938;BME280;40040;42.706;23.372;2022-08-01T00:04:03;148782.38;;;18.70;100.00
6938;BME280;40040;42.706;23.372;2022-08-01T00:06:30;148777.41;;;18.68;100.00
6938;BME280;40040;42.706;23.372;2022-08-01T00:08:57;148774.94;;;18.67;100.00
6938;BME280;40040;42.706;23.372;2022-08-01T00:11:24;148688.00;;;18.32;100.00
6938;BME280;40040;42.706;23.372;2022-08-01T00:13:53;148782.38;;;18.70;100.00
6938;BME280;40040;42.706;23.372;2022-08-01T00:16:20;148772.44;;;18.66;100.00
6938;BME280;40040;42.706;23.372;2022-08-01T00:18:49;148733.97;;;18.50;100.00
6938;BME280;40040;42.706;23.372;2022-08-01T00:21:16;148732.69;;;18.50;100.00
6938;BME280;40040;42.706;23.372;2022-08-01T00:23:43;148722.81;;;18.46;100.00
6938;BME280;40040;42.706;23.372;2022-08-01T00:26:11;148712.88;;;18.42;100.00
6938;BME280;40040;42.706;23.372;2022-08-01T00:28:38;148710.41;;;18.41;100.00
6938;BME280;40040;42.706;23.372;2022-08-01T00:31:07;148732.69;;;18.50;100.00
6938;BME280;40040;42.706;23.372;2022-08-01T00:33:34;148742.66;;;18.54;100.00
6938;BME280;40040;42.706;23.372;2022-08-01T00:36:01;148598.69;;;17.95;100.00
6938;BME280;40040;42.706;23.372;2022-08-01T00:38:28;148750.09;;;18.57;100.00
6938;BME280;40040;42.706;23.372;2022-08-01T00:40:55;148772.44;;;18.66;100.00
6938;BME280;40040;42.706;23.372;2022-08-01T00:43:22;148767.47;;;18.64;100.00
6938;BME280;40040;42.706;23.372;2022-08-01T00:45:49;148782.38;;;18.70;100.00
6938;BME280;40040;42.706;23.372;2022-08-01T00:48:17;148680.59;;;18.29;100.00
6938;BME280;40040;42.706;23.372;2022-08-01T00:50:45;148802.22;;;18.78;100.00
6938;BME280;40040;42.706;23.372;2022-08-01T00:53:12;148807.19;;;18.80;100.00
6938;BME280;40040;42.706;23.372;2022-08-01T00:55:39;148809.69;;;18.81;100.00
6938;BME280;40040;42.706;23.372;2022-08-01T00:58:06;148819.59;;;18.85;100.00
6938;BME280;40040;42.706;23.372;2022-08-01T01:00:34;148817.13;;;18.84;100.00
6938;BME280;40040;42.706;23.372;2022-08-01T01:03:02;148824.56;;;18.87;100.00
6938;BME280;40040;42.706;23.372;2022-08-01T01:08:22;148809.69;;;18.81;100.00
6938;BME280;40040;42.706;23.372;2022-08-01T01:10:54;148820.84;;;18.85;100.00
6938;BME280;40040;42.706;23.372;2022-08-01T01:13:26;148807.19;;;18.80;100.00
6938;BME280;40040;42.706;23.372;2022-08-01T01:15:58;148820.84;;;18.85;100.00
6938;BME280;40040;42.706;23.372;2022-08-01T01:18:31;148797.25;;;18.76;100.00
6938;BME280;40040;42.706;23.372;2022-08-01T01:21:07;148765.00;;;18.63;100.00
6938;BME280;40040;42.706;23.372;2022-08-01T01:23:46;148798.50;;;18.76;100.00
6938;BME280;40040;42.706;23.372;2022-08-01T01:26:26;148789.81;;;18.73;100.00
6938;BME280;40040;42.706;23.372;2022-08-01T01:29:06;148773.69;;;18.66;100.00
6938;BME280;40040;42.706;23.372;2022-08-01T01:31:42;148789.81;;;18.73;100.00
6938;BME280;40040;42.706;23.372;2022-08-01T01:34:11;148776.16;;;18.67;100.00
6938;BME280;40040;42.706;23.372;2022-08-01T01:36:39;148784.84;;;18.71;100.00
6938;BME280;40040;42.706;23.372;2022-08-01T01:39:09;148802.22;;;18.78;100.00
6938;BME280;40040;42.706;23.372;2022-08-01T01:41:37;148807.19;;;18.80;100.00
6938;BME280;40040;42.706;23.372;2022-08-01T01:44:08;148819.59;;;18.85;100.00
6938;BME280;40040;42.706;23.372;2022-08-01T01:46:36;148720.28;;;18.45;100.00
6938;BME280;40040;42.706;23.372;2022-08-01T01:49:05;148819.59;;;18.85;100.00
6938;BME280;40040;42.706;23.372;2022-08-01T01:51:35;148827.06;;;18.88;100.00
6938;BME280;40040;42.706;23.372;2022-08-01T01:54:04;148829.53;;;18.89;100.00
6938;BME280;40040;42.706;23.372;2022-08-01T01:56:32;148823.31;;;18.86;100.00
6938;BME280;40040;42.706;23.372;2022-08-01T01:59:19;148760.03;;;18.61;100.00
6938;BME280;40040;42.706;23.372;2022-08-01T02:01:48;148819.59;;;18.85;100.00
6938;BME280;40040;42.706;23.372;2022-08-01T02:04:16;148807.19;;;18.80;100.00
6938;BME280;40040;42.706;23.372;2022-08-01T02:06:46;148797.25;;;18.76;100.00
6938;BME280;40040;42.706;23.372;2022-08-01T02:09:16;148797.25;;;18.76;100.00
6938;BME280;40040;42.706;23.372;2022-08-01T02:11:46;148783.63;;;18.70;100.00
6938;BME280;40040;42.706;23.372;2022-08-01T02:14:17;148774.94;;;18.67;100.00
6938;BME280;40040;42.706;23.372;2022-08-01T02:16:47;148767.47;;;18.64;100.00
6938;BME280;40040;42.706;23.372;2022-08-01T02:19:16;148758.78;;;18.60;100.00
6938;BME280;40040;42.706;23.372;2022-08-01T02:21:47;148742.66;;;18.54;100.00
6938;BME280;40040;42.706;23.372;2022-08-01T02:24:20;148725.28;;;18.47;100.00
6938;BME280;40040;42.706;23.372;2022-08-01T02:26:52;148719.09;;;18.44;100.00
6938;BME280;40040;42.706;23.372;2022-08-01T02:29:27;148701.66;;;18.37;100.00
6938;BME280;40040;42.706;23.372;2022-08-01T02:31:54;148602.41;;;17.97;100.00
6938;BME280;40040;42.706;23.372;2022-08-01T02:34:22;148684.28;;;18.30;100.00
6938;BME280;40040;42.706;23.372;2022-08-01T02:36:51;148663.19;;;18.22;100.00
6938;BME280;40040;42.706;23.372;2022-08-01T02:39:21;148645.84;;;18.15;100.00
6938;BME280;40040;42.706;23.372;2022-08-01T02:41:50;148635.88;;;18.11;100.00
6938;BME280;40040;42.706;23.372;2022-08-01T02:44:26;148623.50;;;18.06;100.00
6938;BME280;40040;42.706;23.372;2022-08-01T02:46:58;148470.84;;;17.44;100.00
6938;BME280;40040;42.706;23.372;2022-08-01T02:49:30;148541.63;;;17.72;100.00
6938;BME280;40040;42.706;23.372;2022-08-01T02:51:59;148496.94;;;17.54;100.00
6938;BME280;40040;42.706;23.372;2022-08-01T02:54:29;148474.56;;;17.45;100.00
6938;BME280;40040;42.706;23.372;2022-08-01T02:56:57;148431.16;;;17.28;100.00
6938;BME280;40040;42.706;23.372;2022-08-01T02:59:27;148444.81;;;17.33;100.00
6938;BME280;40040;42.706;23.372;2022-08-01T03:01:55;148421.28;;;17.24;100.00
6938;BME280;40040;42.706;23.372;2022-08-01T03:04:23;148411.34;;;17.20;100.00
6938;BME280;40040;42.706;23.372;2022-08-01T03:06:53;148415.06;;;17.21;100.00
6938;BME280;40040;42.706;23.372;2022-08-01T03:09:21;148410.09;;;17.19;100.00
6938;BME280;40040;42.706;23.372;2022-08-01T03:11:49;148410.09;;;17.19;100.00
6938;BME280;40040;42.706;23.372;2022-08-01T03:14:18;148410.09;;;17.19;100.00
6938;BME280;40040;42.706;23.372;2022-08-01T03:16:49;148415.06;;;17.21;100.00
6938;BME280;40040;42.706;23.372;2022-08-01T03:19:18;148417.56;;;17.22;100.00
6938;BME280;40040;42.706;23.372;2022-08-01T03:21:47;148395.22;;;17.13;100.00
6938;BME280;40040;42.706;23.372;2022-08-01T03:24:16;148420.03;;;17.23;100.00
6938;BME280;40040;42.706;23.372;2022-08-01T03:26:43;148358.00;;;16.98;100.00
6938;BME280;40040;42.706;23.372;2022-08-01T03:29:15;148415.06;;;17.21;100.00
6938;BME280;40040;42.706;23.372;2022-08-01T03:31:44;148413.84;;;17.21;100.00
6938;BME280;40040;42.706;23.372;2022-08-01T03:34:13;148416.31;;;17.22;100.00
6938;BME280;40040;42.706;23.372;2022-08-01T03:36:45;148434.91;;;17.29;100.00
6938;BME280;40040;42.706;23.372;2022-08-01T03:39:13;148439.84;;;17.31;100.00
6938;BME280;40040;42.706;23.372;2022-08-01T03:41:45;148449.78;;;17.35;100.00
6938;BME280;40040;42.706;23.372;2022-08-01T03:44:14;148387.81;;;17.10;100.00
6938;BME280;40040;42.706;23.372;2022-08-01T03:46:45;148449.78;;;17.35;100.00
6938;BME280;40040;42.706;23.372;2022-08-01T03:49:17;148301.03;;;16.75;100.00
6938;BME280;40040;42.706;23.372;2022-08-01T03:51:47;148465.88;;;17.42;100.00
6938;BME280;40040;42.706;23.372;2022-08-01T03:54:16;148462.16;;;17.40;100.00
6938;BME280;40040;42.706;23.372;2022-08-01T03:56:46;148454.75;;;17.37;100.00
6938;BME280;40040;42.706;23.372;2022-08-01T03:59:16;148457.19;;;17.38;100.00
6938;BME280;40040;42.706;23.372;2022-08-01T04:01:44;148424.97;;;17.25;100.00
6938;BME280;40040;42.706;23.372;2022-08-01T04:04:11;148437.38;;;17.30;100.00
6938;BME280;40040;42.706;23.372;2022-08-01T04:06:40;148375.38;;;17.05;100.00
6938;BME280;40040;42.706;23.372;2022-08-01T04:09:09;148451.03;;;17.36;100.00
6938;BME280;40040;42.706;23.372;2022-08-01T04:11:36;148307.19;;;16.77;100.00
6938;BME280;40040;42.706;23.372;2022-08-01T04:14:03;148437.38;;;17.30;100.00
6938;BME280;40040;42.706;23.372;2022-08-01T04:16:29;148462.16;;;17.40;100.00
6938;BME280;40040;42.706;23.372;2022-08-01T04:18:56;148462.16;;;17.40;100.00
6938;BME280;40040;42.706;23.372;2022-08-01T04:21:26;148462.16;;;17.40;100.00
6938;BME280;40040;42.706;23.372;2022-08-01T04:23:57;148474.56;;;17.45;100.00
6938;BME280;40040;42.706;23.372;2022-08-01T04:26:26;148484.53;;;17.49;100.00
6938;BME280;40040;42.706;23.372;2022-08-01T04:28:55;148480.84;;;17.48;100.00
6938;BME280;40040;42.706;23.372;2022-08-01T04:31:23;148479.59;;;17.47;100.00
6938;BME280;40040;42.706;23.372;2022-08-01T04:33:53;148477.13;;;17.46;100.00
6938;BME280;40040;42.706;23.372;2022-08-01T04:36:23;148508.13;;;17.59;100.00
6938;BME280;40040;42.706;23.372;2022-08-01T04:38:57;148521.75;;;17.64;100.00
6938;BME280;40040;42.706;23.372;2022-08-01T04:41:26;148534.19;;;17.69;100.00
6938;BME280;40040;42.706;23.372;2022-08-01T04:43:53;148542.88;;;17.73;100.00
6938;BME280;40040;42.706;23.372;2022-08-01T04:46:21;148442.34;;;17.32;100.00
6938;BME280;40040;42.706;23.372;2022-08-01T04:48:49;148420.03;;;17.23;100.00
6938;BME280;40040;42.706;23.372;2022-08-01T04:51:17;148586.25;;;17.90;100.00
6938;BME280;40040;42.706;23.372;2022-08-01T04:53:47;148587.50;;;17.91;100.00
6938;BME280;40040;42.706;23.372;2022-08-01T04:56:18;148442.34;;;17.32;100.00
6938;BME280;40040;42.706;23.372;2022-08-01T04:58:46;148590.00;;;17.92;100.00
6938;BME280;40040;42.706;23.372;2022-08-01T05:01:13;148484.53;;;17.49;100.00
6938;BME280;40040;42.706;23.372;2022-08-01T05:03:40;148496.94;;;17.54;100.00
6938;BME280;40040;42.706;23.372;2022-08-01T05:06:07;148642.13;;;18.13;100.00
6938;BME280;40040;42.706;23.372;2022-08-01T05:08:34;148653.25;;;18.18;100.00
6938;BME280;40040;42.706;23.372;2022-08-01T05:11:01;148650.75;;;18.17;100.00
6938;BME280;40040;42.706;23.372;2022-08-01T05:13:29;148707.84;;;18.40;100.00
6938;BME280;40040;42.706;23.372;2022-08-01T05:15:56;148725.28;;;18.47;100.00
6938;BME280;40040;42.706;23.372;2022-08-01T05:18:24;148757.56;;;18.60;99.03
6938;BME280;40040;42.706;23.372;2022-08-01T05:20:52;148807.19;;;18.80;97.32
6938;BME280;40040;42.706;23.372;2022-08-01T05:23:19;148776.16;;;18.67;97.31
6938;BME280;40040;42.706;23.372;2022-08-01T05:25:45;148881.69;;;19.10;95.98
6938;BME280;40040;42.706;23.372;2022-08-01T05:28:14;148917.72;;;19.25;94.53
6938;BME280;40040;42.706;23.372;2022-08-01T05:30:42;148961.19;;;19.42;94.92
6938;BME280;40040;42.706;23.372;2022-08-01T05:33:09;149018.31;;;19.65;93.09
6938;BME280;40040;42.706;23.372;2022-08-01T05:35:36;149069.25;;;19.86;90.82
6938;BME280;40040;42.706;23.372;2022-08-01T05:38:03;149096.59;;;19.97;89.33
6938;BME280;40040;42.706;23.372;2022-08-01T05:40:30;149181.09;;;20.31;87.07
6938;BME280;40040;42.706;23.372;2022-08-01T05:42:57;149244.53;;;20.57;84.70
6938;BME280;40040;42.706;23.372;2022-08-01T05:45:23;149288.03;;;20.74;82.28
6938;BME280;40040;42.706;23.372;2022-08-01T05:47:52;149340.25;;;20.95;79.63
6938;BME280;40040;42.706;23.372;2022-08-01T05:50:19;149422.34;;;21.29;78.82
6938;BME280;40040;42.706;23.372;2022-08-01T05:52:46;149483.25;;;21.53;76.54
6938;BME280;40040;42.706;23.372;2022-08-01T05:55:12;149528.03;;;21.71;76.27
6938;BME280;40040;42.706;23.372;2022-08-01T05:57:40;149601.47;;;22.01;75.85
6938;BME280;40040;42.706;23.372;2022-08-01T06:00:10;149663.69;;;22.26;74.44
6938;BME280;40040;42.706;23.372;2022-08-01T06:02:40;149724.69;;;22.51;74.19
6938;BME280;40040;42.706;23.372;2022-08-01T06:05:09;149697.28;;;22.40;73.39
6938;BME280;40040;42.706;23.372;2022-08-01T06:07:37;149724.69;;;22.51;73.21
6938;BME280;40040;42.706;23.372;2022-08-01T06:10:06;149727.16;;;22.52;71.53
6938;BME280;40040;42.706;23.372;2022-08-01T06:12:33;149864.09;;;23.07;71.60
6938;BME280;40040;42.706;23.372;2022-08-01T06:15:00;149911.41;;;23.26;70.01
6938;BME280;40040;42.706;23.372;2022-08-01T06:17:27;149951.31;;;23.42;69.45
6938;BME280;40040;42.706;23.372;2022-08-01T06:19:54;149993.63;;;23.59;69.63
6938;BME280;40040;42.706;23.372;2022-08-01T06:22:22;150040.97;;;23.78;69.47
6938;BME280;40040;42.706;23.372;2022-08-01T06:24:49;150075.84;;;23.92;68.05
6938;BME280;40040;42.706;23.372;2022-08-01T06:27:16;150108.31;;;24.05;68.18
6938;BME280;40040;42.706;23.372;2022-08-01T06:29:43;150164.38;;;24.28;66.92
6938;BME280;40040;42.706;23.372;2022-08-01T06:32:10;150225.44;;;24.52;65.55
6938;BME280;40040;42.706;23.372;2022-08-01T06:34:37;150217.97;;;24.49;66.74
6938;BME280;40040;42.706;23.372;2022-08-01T06:37:04;150245.34;;;24.61;65.88
6938;BME280;40040;42.706;23.372;2022-08-01T06:39:32;150183.06;;;24.35;64.20
6938;BME280;40040;42.706;23.372;2022-08-01T06:41:59;150292.75;;;24.80;64.36
6938;BME280;40040;42.706;23.372;2022-08-01T06:44:26;150297.75;;;24.82;63.87
6938;BME280;40040;42.706;23.372;2022-08-01T06:46:52;150352.56;;;25.04;64.13
6938;BME280;40040;42.706;23.372;2022-08-01T06:49:19;150355.09;;;25.05;62.13
6938;BME280;40040;42.706;23.372;2022-08-01T06:51:46;150408.66;;;25.26;63.21
6938;BME280;40040;42.706;23.372;2022-08-01T06:54:13;150444.88;;;25.41;62.48
6938;BME280;40040;42.706;23.372;2022-08-01T06:56:41;150487.28;;;25.58;62.43
6938;BME280;40040;42.706;23.372;2022-08-01T06:59:08;150529.66;;;25.75;61.35
6938;BME280;40040;42.706;23.372;2022-08-01T07:01:35;150481.06;;;25.55;60.84
6938;BME280;40040;42.706;23.372;2022-08-01T07:04:03;150487.28;;;25.58;60.45
6938;BME280;40040;42.706;23.372;2022-08-01T07:06:30;150534.66;;;25.77;60.66
6938;BME280;40040;42.706;23.372;2022-08-01T07:08:57;150573.31;;;25.93;60.33
6938;BME280;40040;42.706;23.372;2022-08-01T07:11:26;150559.63;;;25.87;60.08
6938;BME280;40040;42.706;23.372;2022-08-01T07:13:54;150582.03;;;25.96;59.65
6938;BME280;40040;42.706;23.372;2022-08-01T07:16:22;150608.28;;;26.07;58.40
6938;BME280;40040;42.706;23.372;2022-08-01T07:18:49;150499.72;;;25.63;58.38
6938;BME280;40040;42.706;23.372;2022-08-01T07:21:16;150530.91;;;25.76;59.15
6938;BME280;40040;42.706;23.372;2022-08-01T07:23:42;150624.53;;;26.13;57.91
6938;BME280;40040;42.706;23.372;2022-08-01T07:26:09;150547.13;;;25.82;58.46
6938;BME280;40040;42.706;23.372;2022-08-01T07:28:38;150547.13;;;25.82;57.76
6938;BME280;40040;42.706;23.372;2022-08-01T07:31:06;150758.06;;;26.67;57.05
6938;BME280;40040;42.706;23.372;2022-08-01T07:33:33;150763.06;;;26.69;57.02
6938;BME280;40040;42.706;23.372;2022-08-01T07:36:00;150735.56;;;26.58;58.81
6938;BME280;40040;42.706;23.372;2022-08-01T07:38:27;150726.81;;;26.54;57.29
6938;BME280;40040;42.706;23.372;2022-08-01T07:40:54;150811.69;;;26.89;57.55
6938;BME280;40040;42.706;23.372;2022-08-01T07:43:21;150711.81;;;26.48;55.89
6938;BME280;40040;42.706;23.372;2022-08-01T07:45:48;150688.16;;;26.39;57.74
6938;BME280;40040;42.706;23.372;2022-08-01T07:48:16;150694.34;;;26.41;58.09
6938;BME280;40040;42.706;23.372;2022-08-01T07:50:44;150703.09;;;26.45;58.38
6938;BME280;40040;42.706;23.372;2022-08-01T07:53:11;150734.28;;;26.57;56.69
6938;BME280;40040;42.706;23.372;2022-08-01T07:55:38;150765.53;;;26.70;57.99
6938;BME280;40040;42.706;23.372;2022-08-01T07:58:05;150794.22;;;26.82;57.84
6938;BME280;40040;42.706;23.372;2022-08-01T08:00:32;150836.69;;;26.99;56.37
6938;BME280;40040;42.706;23.372;2022-08-01T08:02:59;150824.16;;;26.94;58.72
6938;BME280;40040;42.706;23.372;2022-08-01T08:05:27;150811.69;;;26.89;58.01
6938;BME280;40040;42.706;23.372;2022-08-01T08:07:54;150916.59;;;27.31;57.98
6938;BME280;40040;42.706;23.372;2022-08-01T08:10:21;150982.78;;;27.57;56.09
6938;BME280;40040;42.706;23.372;2022-08-01T08:12:48;150985.25;;;27.58;55.61
6938;BME280;40040;42.706;23.372;2022-08-01T08:15:15;151027.75;;;27.76;55.39
6938;BME280;40040;42.706;23.372;2022-08-01T08:17:42;151122.69;;;28.14;53.23
6938;BME280;40040;42.706;23.372;2022-08-01T08:20:09;151112.69;;;28.10;53.31
6938;BME280;40040;42.706;23.372;2022-08-01T08:22:38;151023.97;;;27.74;51.21
6938;BME280;40040;42.706;23.372;2022-08-01T08:25:06;151121.44;;;28.13;52.74
6938;BME280;40040;42.706;23.372;2022-08-01T08:27:33;151205.13;;;28.47;52.13
6938;BME280;40040;42.706;23.372;2022-08-01T08:30:00;151237.63;;;28.60;50.39
6938;BME280;40040;42.706;23.372;2022-08-01T08:32:27;151216.41;;;28.51;49.99
6938;BME280;40040;42.706;23.372;2022-08-01T08:34:54;151256.38;;;28.67;50.35
6938;BME280;40040;42.706;23.372;2022-08-01T08:37:21;151253.88;;;28.66;49.91
6938;BME280;40040;42.706;23.372;2022-08-01T08:39:49;151260.13;;;28.69;49.91
6938;BME280;40040;42.706;23.372;2022-08-01T08:42:16;151243.91;;;28.62;47.64
6938;BME280;40040;42.706;23.372;2022-08-01T08:44:43;151313.88;;;28.91;48.26
6938;BME280;40040;42.706;23.372;2022-08-01T08:47:11;151321.38;;;28.94;48.18
6938;BME280;40040;42.706;23.372;2022-08-01T08:49:39;151217.66;;;28.52;46.44
6938;BME280;40040;42.706;23.372;2022-08-01T08:52:08;151245.13;;;28.63;46.10
6938;BME280;40040;42.706;23.372;2022-08-01T08:54:37;151160.16;;;28.29;46.90
6938;BME280;40040;42.706;23.372;2022-08-01T08:57:06;151223.88;;;28.54;47.66
6938;BME280;40040;42.706;23.372;2022-08-01T08:59:36;151278.88;;;28.76;46.64
6938;BME280;40040;42.706;23.372;2022-08-01T09:02:03;151271.34;;;28.73;45.57
6938;BME280;40040;42.706;23.372;2022-08-01T09:04:31;151330.09;;;28.97;47.67
6938;BME280;40040;42.706;23.372;2022-08-01T09:06:58;151381.38;;;29.18;45.62
6938;BME280;40040;42.706;23.372;2022-08-01T09:09:25;151466.34;;;29.52;44.63
6938;BME280;40040;42.706;23.372;2022-08-01T09:11:54;151433.88;;;29.39;45.09
6938;BME280;40040;42.706;23.372;2022-08-01T09:14:22;151505.16;;;29.67;44.06
6938;BME280;40040;42.706;23.372;2022-08-01T09:17:00;151528.91;;;29.77;44.10
6938;BME280;40040;42.706;23.372;2022-08-01T09:19:35;151630.22;;;30.18;42.91
6938;BME280;40040;42.706;23.372;2022-08-01T09:22:05;151623.94;;;30.15;44.11
6938;BME280;40040;42.706;23.372;2022-08-01T09:24:33;151596.41;;;30.04;44.51
6938;BME280;40040;42.706;23.372;2022-08-01T09:27:01;151508.94;;;29.69;44.80
6938;BME280;40040;42.706;23.372;2022-08-01T09:29:30;151591.44;;;30.02;44.35
6938;BME280;40040;42.706;23.372;2022-08-01T09:31:58;151612.69;;;30.11;43.76
6938;BME280;40040;42.706;23.372;2022-08-01T09:34:26;151513.91;;;29.71;41.81
6938;BME280;40040;42.706;23.372;2022-08-01T09:36:55;151654.00;;;30.27;42.45
6938;BME280;40040;42.706;23.372;2022-08-01T09:39:25;151715.28;;;30.52;41.88
6938;BME280;40040;42.706;23.372;2022-08-01T09:41:53;151712.78;;;30.51;42.53
6938;BME280;40040;42.706;23.372;2022-08-01T09:44:38;151696.50;;;30.44;39.80
6938;BME280;40040;42.706;23.372;2022-08-01T09:47:05;151686.53;;;30.40;40.13
6938;BME280;40040;42.706;23.372;2022-08-01T09:49:33;151659.00;;;30.29;40.03
6938;BME280;40040;42.706;23.372;2022-08-01T09:52:11;151706.53;;;30.48;39.98
6938;BME280;40040;42.706;23.372;2022-08-01T09:54:39;151786.63;;;30.80;40.38
6938;BME280;40040;42.706;23.372;2022-08-01T09:57:11;151802.88;;;30.87;40.38
6938;BME280;40040;42.706;23.372;2022-08-01T09:59:41;151706.53;;;30.48;40.64
6938;BME280;40040;42.706;23.372;2022-08-01T10:02:10;151861.66;;;31.11;40.17
6938;BME280;40040;42.706;23.372;2022-08-01T10:04:49;151886.72;;;31.21;40.31
6938;BME280;40040;42.706;23.372;2022-08-01T10:07:16;151924.28;;;31.36;39.92
6938;BME280;40040;42.706;23.372;2022-08-01T10:09:43;151951.84;;;31.47;39.68
6938;BME280;40040;42.706;23.372;2022-08-01T10:12:13;152092.03;;;32.03;42.05
6938;BME280;40040;42.706;23.372;2022-08-01T10:14:42;152006.88;;;31.69;40.38
6938;BME280;40040;42.706;23.372;2022-08-01T10:17:12;152049.44;;;31.86;40.55
6938;BME280;40040;42.706;23.372;2022-08-01T10:19:40;151995.63;;;31.64;40.25
6938;BME280;40040;42.706;23.372;2022-08-01T10:22:09;151986.88;;;31.61;41.82
6938;BME280;40040;42.706;23.372;2022-08-01T10:24:38;151931.78;;;31.39;40.50
6938;BME280;40040;42.706;23.372;2022-08-01T10:27:07;151930.56;;;31.38;39.59
6938;BME280;40040;42.706;23.372;2022-08-01T10:29:40;151988.09;;;31.61;40.23
6938;BME280;40040;42.706;23.372;2022-08-01T10:32:09;152031.91;;;31.79;39.66
6938;BME280;40040;42.706;23.372;2022-08-01T10:34:37;152046.94;;;31.85;40.38
6938;BME280;40040;42.706;23.372;2022-08-01T10:37:04;152139.59;;;32.22;38.25
6938;BME280;40040;42.706;23.372;2022-08-01T10:39:32;152162.13;;;32.31;37.27
6938;BME280;40040;42.706;23.372;2022-08-01T10:41:59;152089.53;;;32.02;39.96
6938;BME280;40040;42.706;23.372;2022-08-01T10:44:28;152154.63;;;32.28;37.43
6938;BME280;40040;42.706;23.372;2022-08-01T10:46:59;152098.31;;;32.06;38.29
6938;BME280;40040;42.706;23.372;2022-08-01T10:49:34;152227.28;;;32.57;37.74
6938;BME280;40040;42.706;23.372;2022-08-01T10:52:04;152195.97;;;32.45;38.63
6938;BME280;40040;42.706;23.372;2022-08-01T10:54:39;152252.38;;;32.67;39.04
6938;BME280;40040;42.706;23.372;2022-08-01T10:57:07;152199.78;;;32.46;39.60
6938;BME280;40040;42.706;23.372;2022-08-01T10:59:36;152162.13;;;32.31;38.93
6938;BME280;40040;42.706;23.372;2022-08-01T11:02:25;152168.41;;;32.34;38.10
6938;BME280;40040;42.706;23.372;2022-08-01T11:05:01;151956.81;;;31.49;39.69
6938;BME280;40040;42.706;23.372;2022-08-01T11:07:42;151924.28;;;31.36;39.87
6938;BME280;40040;42.706;23.372;2022-08-01T11:10:19;151914.22;;;31.32;40.71
6938;BME280;40040;42.706;23.372;2022-08-01T11:12:48;152060.78;;;31.90;38.87
6938;BME280;40040;42.706;23.372;2022-08-01T11:15:21;151933.06;;;31.39;40.55
6938;BME280;40040;42.706;23.372;2022-08-01T11:17:52;151981.88;;;31.59;39.90
6938;BME280;40040;42.706;23.372;2022-08-01T11:20:21;152008.16;;;31.69;41.40
6938;BME280;40040;42.706;23.372;2022-08-01T11:23:17;151948.09;;;31.45;40.00
6938;BME280;40040;42.706;23.372;2022-08-01T11:29:10;152157.13;;;32.29;39.45
6938;BME280;40040;42.706;23.372;2022-08-01T11:31:38;152253.59;;;32.68;38.48
6938;BME280;40040;42.706;23.372;2022-08-01T11:34:05;152253.59;;;32.68;38.35
6938;BME280;40040;42.706;23.372;2022-08-01T11:36:34;152122.06;;;32.15;38.04
6938;BME280;40040;42.706;23.372;2022-08-01T11:39:15;152194.75;;;32.44;38.20
6938;BME280;40040;42.706;23.372;2022-08-01T11:41:43;152128.34;;;32.18;38.78
6938;BME280;40040;42.706;23.372;2022-08-01T11:44:12;152184.72;;;32.40;37.76
6938;BME280;40040;42.706;23.372;2022-08-01T11:47:00;151984.34;;;31.60;38.53
6938;BME280;40040;42.706;23.372;2022-08-01T11:49:31;151945.56;;;31.44;38.70
6938;BME280;40040;42.706;23.372;2022-08-01T11:52:06;151816.66;;;30.92;41.75
6938;BME280;40040;42.706;23.372;2022-08-01T11:54:35;151826.63;;;30.97;40.91
6938;BME280;40040;42.706;23.372;2022-08-01T11:57:04;151781.56;;;30.78;41.85
6938;BME280;40040;42.706;23.372;2022-08-01T11:59:36;151696.50;;;30.44;41.09
6938;BME280;40040;42.706;23.372;2022-08-01T12:02:04;151667.75;;;30.33;42.30
6938;BME280;40040;42.706;23.372;2022-08-01T12:04:52;151704.03;;;30.47;43.89
6938;BME280;40040;42.706;23.372;2022-08-01T12:07:22;151744.03;;;30.63;42.01
6938;BME280;40040;42.706;23.372;2022-08-01T12:09:57;151770.28;;;30.74;45.07
6938;BME280;40040;42.706;23.372;2022-08-01T12:12:24;151752.78;;;30.67;41.16
6938;BME280;40040;42.706;23.372;2022-08-01T12:14:55;151696.50;;;30.44;44.25
6938;BME280;40040;42.706;23.372;2022-08-01T12:17:34;151502.63;;;29.66;46.57
6938;BME280;40040;42.706;23.372;2022-08-01T12:20:04;151478.91;;;29.57;45.60
6938;BME280;40040;42.706;23.372;2022-08-01T12:22:33;151473.88;;;29.55;46.62
6938;BME280;40040;42.706;23.372;2022-08-01T12:25:05;151508.94;;;29.69;44.35
6938;BME280;40040;42.706;23.372;2022-08-01T12:27:33;151573.94;;;29.95;43.17
6938;BME280;40040;42.706;23.372;2022-08-01T12:30:01;151498.88;;;29.65;44.26
6938;BME280;40040;42.706;23.372;2022-08-01T12:32:29;151571.41;;;29.94;45.85
6938;BME280;40040;42.706;23.372;2022-08-01T12:35:01;151551.44;;;29.86;43.51
6938;BME280;40040;42.706;23.372;2022-08-01T12:37:28;151567.66;;;29.93;44.33
6938;BME280;40040;42.706;23.372;2022-08-01T12:39:57;151575.16;;;29.96;45.06
6938;BME280;40040;42.706;23.372;2022-08-01T12:42:24;151510.16;;;29.69;44.84
6938;BME280;40040;42.706;23.372;2022-08-01T12:44:52;151611.44;;;30.10;43.68
6938;BME280;40040;42.706;23.372;2022-08-01T12:47:20;151588.91;;;30.01;44.44
6938;BME280;40040;42.706;23.372;2022-08-01T12:49:48;151552.69;;;29.87;44.30
6938;BME280;40040;42.706;23.372;2022-08-01T12:52:16;151530.19;;;29.77;45.41
6938;BME280;40040;42.706;23.372;2022-08-01T12:55:03;151556.44;;;29.88;45.61
6938;BME280;40040;42.706;23.372;2022-08-01T12:57:30;151546.44;;;29.84;43.58
6938;BME280;40040;42.706;23.372;2022-08-01T13:00:12;151533.94;;;29.79;44.32
6938;BME280;40040;42.706;23.372;2022-08-01T13:02:40;151476.38;;;29.56;44.68